sensor_id;sensor_type;location;lat;lon;timestamp;P1;durP1;ratioP1;P2;durP2;ratioP2
32096;SDS011;18610;49.916;8.284;2022-10-31T00:00:03;19.60;;;12.10;;
32096;SDS011;18610;49.916;8.284;2022-10-31T00:02:33;21.75;;;11.18;;
32096;SDS011;18610;49.916;8.284;2022-10-31T00:05:00;33.10;;;12.63;;
32096;SDS011;18610;49.916;8.284;2022-10-31T00:07:26;29.35;;;12.68;;
32096;SDS011;18610;49.916;8.284;2022-10-31T00:09:53;27.80;;;12.00;;
32096;SDS011;18610;49.916;8.284;2022-10-31T00:12:20;20.50;;;12.32;;
32096;SDS011;18610;49.916;8.284;2022-10-31T00:14:49;29.90;;;11.88;;
32096;SDS011;18610;49.916;8.284;2022-10-31T00:17:16;18.90;;;11.57;;
32096;SDS011;18610;49.916;8.284;2022-10-31T00:19:43;21.90;;;12.25;;
32096;SDS011;18610;49.916;8.284;2022-10-31T00:22:10;25.05;;;12.40;;
32096;SDS011;18610;49.916;8.284;2022-10-31T00:24:37;22.33;;;10.45;;
32096;SDS011;18610;49.916;8.284;2022-10-31T00:27:04;25.90;;;11.30;;
32096;SDS011;18610;49.916;8.284;2022-10-31T00:29:31;24.63;;;11.93;;
32096;SDS011;18610;49.916;8.284;2022-10-31T00:31:59;23.73;;;11.90;;
32096;SDS011;18610;49.916;8.284;2022-10-31T00:34:26;26.85;;;11.80;;
32096;SDS011;18610;49.916;8.284;2022-10-31T00:36:52;20.42;;;11.32;;
32096;SDS011;18610;49.916;8.284;2022-10-31T00:39:19;25.70;;;11.40;;
32096;SDS011;18610;49.916;8.284;2022-10-31T00:41:46;25.02;;;11.18;;
32096;SDS011;18610;49.916;8.284;2022-10-31T00:44:13;27.17;;;11.43;;
32096;SDS011;18610;49.916;8.284;2022-10-31T00:46:40;22.05;;;11.50;;
32096;SDS011;18610;49.916;8.284;2022-10-31T00:49:08;25.65;;;12.40;;
32096;SDS011;18610;49.916;8.284;2022-10-31T00:51:35;23.27;;;13.40;;
32096;SDS011;18610;49.916;8.284;2022-10-31T00:54:01;30.25;;;12.68;;
32096;SDS011;18610;49.916;8.284;2022-10-31T00:56:28;21.85;;;12.45;;
32096;SDS011;18610;49.916;8.284;2022-10-31T00:58:55;26.05;;;11.35;;
32096;SDS011;18610;49.916;8.284;2022-10-31T01:01:22;31.42;;;12.13;;
32096;SDS011;18610;49.916;8.284;2022-10-31T01:03:49;28.52;;;12.18;;
32096;SDS011;18610;49.916;8.284;2022-10-31T01:06:18;22.25;;;11.27;;
32096;SDS011;18610;49.916;8.284;2022-10-31T01:08:45;19.42;;;11.40;;
32096;SDS011;18610;49.916;8.284;2022-10-31T01:11:14;18.92;;;11.57;;
32096;SDS011;18610;49.916;8.284;2022-10-31T01:13:42;30.45;;;11.32;;
32096;SDS011;18610;49.916;8.284;2022-10-31T01:16:11;23.20;;;10.55;;
32096;SDS011;18610;49.916;8.284;2022-10-31T01:18:40;28.63;;;12.93;;
32096;SDS011;18610;49.916;8.284;2022-10-31T01:21:10;23.15;;;11.88;;
32096;SDS011;18610;49.916;8.284;2022-10-31T01:23:40;21.23;;;11.25;;
32096;SDS011;18610;49.916;8.284;2022-10-31T01:26:08;20.50;;;12.32;;
32096;SDS011;18610;49.916;8.284;2022-10-31T01:28:37;27.73;;;11.88;;
32096;SDS011;18610;49.916;8.284;2022-10-31T01:31:06;18.00;;;10.98;;
32096;SDS011;18610;49.916;8.284;2022-10-31T01:33:37;27.30;;;10.90;;
32096;SDS011;18610;49.916;8.284;2022-10-31T01:36:10;23.40;;;11.40;;
32096;SDS011;18610;49.916;8.284;2022-10-31T01:38:40;19.25;;;10.40;;
32096;SDS011;18610;49.916;8.284;2022-10-31T01:41:07;19.98;;;11.45;;
32096;SDS011;18610;49.916;8.284;2022-10-31T01:43:43;25.52;;;11.13;;
32096;SDS011;18610;49.916;8.284;2022-10-31T01:46:11;21.42;;;10.70;;
32096;SDS011;18610;49.916;8.284;2022-10-31T01:48:39;24.23;;;10.02;;
32096;SDS011;18610;49.916;8.284;2022-10-31T01:51:07;22.08;;;11.05;;
32096;SDS011;18610;49.916;8.284;2022-10-31T01:53:36;35.08;;;12.63;;
32096;SDS011;18610;49.916;8.284;2022-10-31T01:56:05;21.90;;;9.95;;
32096;SDS011;18610;49.916;8.284;2022-10-31T01:58:33;17.73;;;10.65;;
32096;SDS011;18610;49.916;8.284;2022-10-31T02:01:00;23.67;;;9.68;;
32096;SDS011;18610;49.916;8.284;2022-10-31T02:03:28;24.13;;;9.60;;
32096;SDS011;18610;49.916;8.284;2022-10-31T02:05:56;18.48;;;7.97;;
32096;SDS011;18610;49.916;8.284;2022-10-31T02:08:25;20.40;;;8.90;;
32096;SDS011;18610;49.916;8.284;2022-10-31T02:10:54;15.02;;;8.88;;
32096;SDS011;18610;49.916;8.284;2022-10-31T02:13:23;16.42;;;9.40;;
32096;SDS011;18610;49.916;8.284;2022-10-31T02:15:52;21.27;;;10.10;;
32096;SDS011;18610;49.916;8.284;2022-10-31T02:18:21;17.95;;;9.88;;
32096;SDS011;18610;49.916;8.284;2022-10-31T02:20:54;17.50;;;9.10;;
32096;SDS011;18610;49.916;8.284;2022-10-31T02:23:43;17.30;;;8.75;;
32096;SDS011;18610;49.916;8.284;2022-10-31T02:26:38;17.60;;;8.65;;
32096;SDS011;18610;49.916;8.284;2022-10-31T02:29:21;18.10;;;9.30;;
32096;SDS011;18610;49.916;8.284;2022-10-31T02:32:07;19.08;;;9.55;;
32096;SDS011;18610;49.916;8.284;2022-10-31T02:34:40;13.90;;;9.20;;
32096;SDS011;18610;49.916;8.284;2022-10-31T02:37:14;15.73;;;8.73;;
32096;SDS011;18610;49.916;8.284;2022-10-31T02:39:47;23.70;;;9.40;;
32096;SDS011;18610;49.916;8.284;2022-10-31T02:42:22;20.20;;;10.00;;
32096;SDS011;18610;49.916;8.284;2022-10-31T02:44:58;21.98;;;9.75;;
32096;SDS011;18610;49.916;8.284;2022-10-31T02:47:36;20.40;;;11.05;;
32096;SDS011;18610;49.916;8.284;2022-10-31T02:50:04;25.00;;;11.30;;
32096;SDS011;18610;49.916;8.284;2022-10-31T02:52:35;20.48;;;11.45;;
32096;SDS011;18610;49.916;8.284;2022-10-31T02:55:09;24.05;;;10.30;;
32096;SDS011;18610;49.916;8.284;2022-10-31T02:57:37;18.45;;;9.85;;
32096;SDS011;18610;49.916;8.284;2022-10-31T03:00:07;16.77;;;9.90;;
32096;SDS011;18610;49.916;8.284;2022-10-31T03:02:40;16.90;;;10.68;;
32096;SDS011;18610;49.916;8.284;2022-10-31T03:05:21;17.98;;;9.88;;
32096;SDS011;18610;49.916;8.284;2022-10-31T03:08:08;25.70;;;10.70;;
32096;SDS011;18610;49.916;8.284;2022-10-31T03:10:43;16.77;;;9.52;;
32096;SDS011;18610;49.916;8.284;2022-10-31T03:13:18;21.08;;;9.73;;
32096;SDS011;18610;49.916;8.284;2022-10-31T03:15:50;20.48;;;10.52;;
32096;SDS011;18610;49.916;8.284;2022-10-31T03:18:21;25.15;;;11.20;;
32096;SDS011;18610;49.916;8.284;2022-10-31T03:20:55;18.75;;;10.18;;
32096;SDS011;18610;49.916;8.284;2022-10-31T03:23:27;22.35;;;10.32;;
32096;SDS011;18610;49.916;8.284;2022-10-31T03:25:56;18.13;;;10.02;;
32096;SDS011;18610;49.916;8.284;2022-10-31T03:28:27;21.35;;;9.35;;
32096;SDS011;18610;49.916;8.284;2022-10-31T03:30:56;17.80;;;9.88;;
32096;SDS011;18610;49.916;8.284;2022-10-31T03:33:27;20.63;;;8.98;;
32096;SDS011;18610;49.916;8.284;2022-10-31T03:35:58;19.48;;;8.95;;
32096;SDS011;18610;49.916;8.284;2022-10-31T03:38:28;21.48;;;9.25;;
32096;SDS011;18610;49.916;8.284;2022-10-31T03:40:57;22.83;;;9.27;;
32096;SDS011;18610;49.916;8.284;2022-10-31T03:43:26;29.98;;;10.05;;
32096;SDS011;18610;49.916;8.284;2022-10-31T03:45:56;20.20;;;10.75;;
32096;SDS011;18610;49.916;8.284;2022-10-31T03:48:23;21.40;;;10.43;;
32096;SDS011;18610;49.916;8.284;2022-10-31T03:51:08;41.58;;;11.07;;
32096;SDS011;18610;49.916;8.284;2022-10-31T03:53:43;33.83;;;11.68;;
32096;SDS011;18610;49.916;8.284;2022-10-31T03:56:15;32.83;;;12.15;;
32096;SDS011;18610;49.916;8.284;2022-10-31T03:58:47;23.08;;;11.30;;
32096;SDS011;18610;49.916;8.284;2022-10-31T04:01:18;21.65;;;12.25;;
32096;SDS011;18610;49.916;8.284;2022-10-31T04:03:47;20.42;;;12.77;;
32096;SDS011;18610;49.916;8.284;2022-10-31T04:06:16;36.10;;;12.38;;
32096;SDS011;18610;49.916;8.284;2022-10-31T04:08:47;22.67;;;11.52;;
32096;SDS011;18610;49.916;8.284;2022-10-31T04:11:18;20.20;;;11.85;;
32096;SDS011;18610;49.916;8.284;2022-10-31T04:13:48;19.60;;;10.55;;
32096;SDS011;18610;49.916;8.284;2022-10-31T04:16:16;17.60;;;10.73;;
32096;SDS011;18610;49.916;8.284;2022-10-31T04:18:43;27.05;;;10.98;;
32096;SDS011;18610;49.916;8.284;2022-10-31T04:21:10;26.10;;;11.90;;
32096;SDS011;18610;49.916;8.284;2022-10-31T04:23:41;21.15;;;9.88;;
32096;SDS011;18610;49.916;8.284;2022-10-31T04:26:08;17.88;;;11.27;;
32096;SDS011;18610;49.916;8.284;2022-10-31T04:28:37;14.95;;;9.60;;
32096;SDS011;18610;49.916;8.284;2022-10-31T04:31:04;20.67;;;10.07;;
32096;SDS011;18610;49.916;8.284;2022-10-31T04:33:31;16.20;;;9.95;;
32096;SDS011;18610;49.916;8.284;2022-10-31T04:35:58;11.98;;;7.97;;
32096;SDS011;18610;49.916;8.284;2022-10-31T04:38:25;17.27;;;9.50;;
32096;SDS011;18610;49.916;8.284;2022-10-31T04:40:53;12.10;;;8.15;;
32096;SDS011;18610;49.916;8.284;2022-10-31T04:43:20;13.00;;;8.02;;
32096;SDS011;18610;49.916;8.284;2022-10-31T04:45:47;12.23;;;8.90;;
32096;SDS011;18610;49.916;8.284;2022-10-31T04:48:13;12.25;;;7.95;;
32096;SDS011;18610;49.916;8.284;2022-10-31T04:50:40;14.63;;;8.05;;
32096;SDS011;18610;49.916;8.284;2022-10-31T04:53:07;13.77;;;7.88;;
32096;SDS011;18610;49.916;8.284;2022-10-31T04:55:34;13.57;;;8.45;;
32096;SDS011;18610;49.916;8.284;2022-10-31T04:58:03;14.85;;;7.82;;
32096;SDS011;18610;49.916;8.284;2022-10-31T05:00:30;13.75;;;7.97;;
32096;SDS011;18610;49.916;8.284;2022-10-31T05:02:57;18.75;;;7.93;;
32096;SDS011;18610;49.916;8.284;2022-10-31T05:05:25;12.50;;;8.48;;
32096;SDS011;18610;49.916;8.284;2022-10-31T05:07:53;21.17;;;7.40;;
32096;SDS011;18610;49.916;8.284;2022-10-31T05:10:21;14.93;;;7.97;;
32096;SDS011;18610;49.916;8.284;2022-10-31T05:12:50;10.30;;;6.85;;
32096;SDS011;18610;49.916;8.284;2022-10-31T05:15:20;11.02;;;6.57;;
32096;SDS011;18610;49.916;8.284;2022-10-31T05:17:48;16.50;;;7.40;;
32096;SDS011;18610;49.916;8.284;2022-10-31T05:20:16;13.00;;;6.75;;
32096;SDS011;18610;49.916;8.284;2022-10-31T05:22:43;16.65;;;7.50;;
32096;SDS011;18610;49.916;8.284;2022-10-31T05:25:11;18.40;;;7.72;;
32096;SDS011;18610;49.916;8.284;2022-10-31T05:27:38;16.27;;;7.65;;
32096;SDS011;18610;49.916;8.284;2022-10-31T05:30:08;13.82;;;7.15;;
32096;SDS011;18610;49.916;8.284;2022-10-31T05:32:38;13.73;;;7.90;;
32096;SDS011;18610;49.916;8.284;2022-10-31T05:35:05;12.73;;;7.47;;
32096;SDS011;18610;49.916;8.284;2022-10-31T05:37:33;17.45;;;7.75;;
32096;SDS011;18610;49.916;8.284;2022-10-31T05:40:00;15.38;;;7.38;;
32096;SDS011;18610;49.916;8.284;2022-10-31T05:42:27;12.60;;;7.28;;
32096;SDS011;18610;49.916;8.284;2022-10-31T05:44:54;14.90;;;8.27;;
32096;SDS011;18610;49.916;8.284;2022-10-31T05:47:20;15.38;;;8.10;;
32096;SDS011;18610;49.916;8.284;2022-10-31T05:49:49;13.80;;;8.45;;
32096;SDS011;18610;49.916;8.284;2022-10-31T05:52:16;15.85;;;9.30;;
32096;SDS011;18610;49.916;8.284;2022-10-31T05:54:43;16.15;;;8.48;;
32096;SDS011;18610;49.916;8.284;2022-10-31T05:57:09;22.05;;;8.40;;
32096;SDS011;18610;49.916;8.284;2022-10-31T05:59:36;21.52;;;10.57;;
32096;SDS011;18610;49.916;8.284;2022-10-31T06:02:03;24.05;;;8.98;;
32096;SDS011;18610;49.916;8.284;2022-10-31T06:04:30;18.88;;;9.13;;
32096;SDS011;18610;49.916;8.284;2022-10-31T06:06:58;19.13;;;9.43;;
32096;SDS011;18610;49.916;8.284;2022-10-31T06:09:25;16.88;;;9.18;;
32096;SDS011;18610;49.916;8.284;2022-10-31T06:11:52;23.35;;;10.13;;
32096;SDS011;18610;49.916;8.284;2022-10-31T06:14:18;20.30;;;8.95;;
32096;SDS011;18610;49.916;8.284;2022-10-31T06:16:45;18.42;;;8.25;;
32096;SDS011;18610;49.916;8.284;2022-10-31T06:19:12;16.88;;;7.82;;
32096;SDS011;18610;49.916;8.284;2022-10-31T06:21:39;22.02;;;9.02;;
32096;SDS011;18610;49.916;8.284;2022-10-31T06:24:07;18.23;;;9.10;;
32096;SDS011;18610;49.916;8.284;2022-10-31T06:26:34;24.00;;;9.98;;
32096;SDS011;18610;49.916;8.284;2022-10-31T06:29:01;20.00;;;10.43;;
32096;SDS011;18610;49.916;8.284;2022-10-31T06:31:28;17.65;;;8.25;;
32096;SDS011;18610;49.916;8.284;2022-10-31T06:33:54;18.48;;;9.63;;
32096;SDS011;18610;49.916;8.284;2022-10-31T06:36:21;21.90;;;9.00;;
32096;SDS011;18610;49.916;8.284;2022-10-31T06:38:48;20.55;;;9.75;;
32096;SDS011;18610;49.916;8.284;2022-10-31T06:41:16;19.27;;;8.77;;
32096;SDS011;18610;49.916;8.284;2022-10-31T06:43:45;18.60;;;9.10;;
32096;SDS011;18610;49.916;8.284;2022-10-31T06:46:12;25.48;;;10.00;;
32096;SDS011;18610;49.916;8.284;2022-10-31T06:48:39;17.27;;;9.65;;
32096;SDS011;18610;49.916;8.284;2022-10-31T06:51:06;23.88;;;9.80;;
32096;SDS011;18610;49.916;8.284;2022-10-31T06:53:33;18.92;;;9.77;;
32096;SDS011;18610;49.916;8.284;2022-10-31T06:56:00;22.58;;;9.48;;
32096;SDS011;18610;49.916;8.284;2022-10-31T06:58:28;27.38;;;10.70;;
32096;SDS011;18610;49.916;8.284;2022-10-31T07:00:54;26.25;;;10.30;;
32096;SDS011;18610;49.916;8.284;2022-10-31T07:03:24;23.83;;;10.35;;
32096;SDS011;18610;49.916;8.284;2022-10-31T07:05:51;29.52;;;10.65;;
32096;SDS011;18610;49.916;8.284;2022-10-31T07:08:17;21.50;;;9.38;;
32096;SDS011;18610;49.916;8.284;2022-10-31T07:10:50;31.58;;;10.70;;
32096;SDS011;18610;49.916;8.284;2022-10-31T07:13:17;15.93;;;8.77;;
32096;SDS011;18610;49.916;8.284;2022-10-31T07:15:47;18.02;;;10.45;;
32096;SDS011;18610;49.916;8.284;2022-10-31T07:18:14;28.33;;;11.63;;
32096;SDS011;18610;49.916;8.284;2022-10-31T07:20:41;32.03;;;10.48;;
32096;SDS011;18610;49.916;8.284;2022-10-31T07:23:09;28.27;;;10.55;;
32096;SDS011;18610;49.916;8.284;2022-10-31T07:25:36;24.17;;;10.50;;
32096;SDS011;18610;49.916;8.284;2022-10-31T07:28:03;19.33;;;9.35;;
32096;SDS011;18610;49.916;8.284;2022-10-31T07:30:31;23.33;;;10.10;;
32096;SDS011;18610;49.916;8.284;2022-10-31T07:33:00;21.23;;;9.05;;
32096;SDS011;18610;49.916;8.284;2022-10-31T07:35:27;17.17;;;9.02;;
32096;SDS011;18610;49.916;8.284;2022-10-31T07:37:54;17.30;;;9.82;;
32096;SDS011;18610;49.916;8.284;2022-10-31T07:40:22;20.80;;;9.45;;
32096;SDS011;18610;49.916;8.284;2022-10-31T07:42:50;31.70;;;9.45;;
32096;SDS011;18610;49.916;8.284;2022-10-31T07:45:19;18.20;;;9.45;;
32096;SDS011;18610;49.916;8.284;2022-10-31T07:47:47;20.88;;;9.70;;
32096;SDS011;18610;49.916;8.284;2022-10-31T07:50:17;18.55;;;9.30;;
32096;SDS011;18610;49.916;8.284;2022-10-31T07:52:46;23.38;;;10.63;;
32096;SDS011;18610;49.916;8.284;2022-10-31T07:55:13;26.83;;;9.95;;
32096;SDS011;18610;49.916;8.284;2022-10-31T07:57:40;26.40;;;9.68;;
32096;SDS011;18610;49.916;8.284;2022-10-31T08:00:08;23.88;;;10.13;;
32096;SDS011;18610;49.916;8.284;2022-10-31T08:02:36;25.42;;;8.85;;
32096;SDS011;18610;49.916;8.284;2022-10-31T08:05:02;20.33;;;9.75;;
32096;SDS011;18610;49.916;8.284;2022-10-31T08:07:35;19.83;;;9.82;;
32096;SDS011;18610;49.916;8.284;2022-10-31T08:10:02;25.02;;;10.57;;
32096;SDS011;18610;49.916;8.284;2022-10-31T08:12:30;23.63;;;11.02;;
32096;SDS011;18610;49.916;8.284;2022-10-31T08:14:57;25.13;;;10.52;;
32096;SDS011;18610;49.916;8.284;2022-10-31T08:17:23;27.95;;;12.18;;
32096;SDS011;18610;49.916;8.284;2022-10-31T08:19:54;29.27;;;12.30;;
32096;SDS011;18610;49.916;8.284;2022-10-31T08:22:22;33.47;;;13.55;;
32096;SDS011;18610;49.916;8.284;2022-10-31T08:24:50;27.58;;;14.25;;
32096;SDS011;18610;49.916;8.284;2022-10-31T08:27:16;29.08;;;13.73;;
32096;SDS011;18610;49.916;8.284;2022-10-31T08:29:43;34.30;;;14.23;;
32096;SDS011;18610;49.916;8.284;2022-10-31T08:32:10;26.70;;;12.05;;
32096;SDS011;18610;49.916;8.284;2022-10-31T08:34:37;25.88;;;12.27;;
32096;SDS011;18610;49.916;8.284;2022-10-31T08:37:04;24.95;;;12.32;;
32096;SDS011;18610;49.916;8.284;2022-10-31T08:39:31;29.80;;;12.77;;
32096;SDS011;18610;49.916;8.284;2022-10-31T08:41:59;27.38;;;12.68;;
32096;SDS011;18610;49.916;8.284;2022-10-31T08:44:26;26.63;;;12.85;;
32096;SDS011;18610;49.916;8.284;2022-10-31T08:46:52;26.27;;;13.43;;
32096;SDS011;18610;49.916;8.284;2022-10-31T08:49:20;33.55;;;13.45;;
32096;SDS011;18610;49.916;8.284;2022-10-31T08:51:47;29.67;;;12.23;;
32096;SDS011;18610;49.916;8.284;2022-10-31T08:54:13;37.80;;;12.75;;
32096;SDS011;18610;49.916;8.284;2022-10-31T08:56:40;38.33;;;13.70;;
32096;SDS011;18610;49.916;8.284;2022-10-31T08:59:09;25.90;;;12.23;;
32096;SDS011;18610;49.916;8.284;2022-10-31T09:01:36;29.13;;;13.75;;
32096;SDS011;18610;49.916;8.284;2022-10-31T09:04:03;21.98;;;11.93;;
32096;SDS011;18610;49.916;8.284;2022-10-31T09:06:29;26.13;;;11.27;;
32096;SDS011;18610;49.916;8.284;2022-10-31T09:08:56;21.02;;;11.60;;
32096;SDS011;18610;49.916;8.284;2022-10-31T09:11:24;28.08;;;11.82;;
32096;SDS011;18610;49.916;8.284;2022-10-31T09:13:51;22.83;;;12.50;;
32096;SDS011;18610;49.916;8.284;2022-10-31T09:16:20;24.02;;;12.30;;
32096;SDS011;18610;49.916;8.284;2022-10-31T09:18:47;29.25;;;11.60;;
32096;SDS011;18610;49.916;8.284;2022-10-31T09:21:13;27.08;;;11.48;;
32096;SDS011;18610;49.916;8.284;2022-10-31T09:23:40;25.23;;;11.63;;
32096;SDS011;18610;49.916;8.284;2022-10-31T09:26:07;27.42;;;10.88;;
32096;SDS011;18610;49.916;8.284;2022-10-31T09:28:34;23.65;;;10.45;;
32096;SDS011;18610;49.916;8.284;2022-10-31T09:31:01;35.22;;;12.73;;
32096;SDS011;18610;49.916;8.284;2022-10-31T09:33:29;20.67;;;11.07;;
32096;SDS011;18610;49.916;8.284;2022-10-31T09:35:57;27.90;;;10.85;;
32096;SDS011;18610;49.916;8.284;2022-10-31T09:38:24;22.58;;;10.07;;
32096;SDS011;18610;49.916;8.284;2022-10-31T09:40:52;18.17;;;10.93;;
32096;SDS011;18610;49.916;8.284;2022-10-31T09:43:29;26.17;;;10.35;;
32096;SDS011;18610;49.916;8.284;2022-10-31T09:46:04;21.30;;;10.25;;
32096;SDS011;18610;49.916;8.284;2022-10-31T09:48:40;19.58;;;9.90;;
32096;SDS011;18610;49.916;8.284;2022-10-31T09:51:17;21.33;;;10.02;;
32096;SDS011;18610;49.916;8.284;2022-10-31T09:53:48;18.40;;;9.30;;
32096;SDS011;18610;49.916;8.284;2022-10-31T09:56:18;23.25;;;11.02;;
32096;SDS011;18610;49.916;8.284;2022-10-31T09:58:47;24.17;;;9.85;;
32096;SDS011;18610;49.916;8.284;2022-10-31T10:01:22;17.50;;;9.73;;
32096;SDS011;18610;49.916;8.284;2022-10-31T10:03:58;21.30;;;9.82;;
32096;SDS011;18610;49.916;8.284;2022-10-31T10:06:28;16.63;;;9.97;;
32096;SDS011;18610;49.916;8.284;2022-10-31T10:08:58;23.27;;;11.25;;
32096;SDS011;18610;49.916;8.284;2022-10-31T10:11:37;24.00;;;9.30;;
32096;SDS011;18610;49.916;8.284;2022-10-31T10:14:16;24.55;;;10.27;;
32096;SDS011;18610;49.916;8.284;2022-10-31T10:16:54;21.08;;;9.02;;
32096;SDS011;18610;49.916;8.284;2022-10-31T10:19:39;16.98;;;8.35;;
32096;SDS011;18610;49.916;8.284;2022-10-31T10:22:23;27.25;;;10.38;;
32096;SDS011;18610;49.916;8.284;2022-10-31T10:25:01;25.75;;;8.63;;
32096;SDS011;18610;49.916;8.284;2022-10-31T10:27:41;14.68;;;6.80;;
32096;SDS011;18610;49.916;8.284;2022-10-31T10:30:15;18.17;;;7.88;;
32096;SDS011;18610;49.916;8.284;2022-10-31T10:32:45;18.10;;;8.23;;
32096;SDS011;18610;49.916;8.284;2022-10-31T10:35:19;21.77;;;7.93;;
32096;SDS011;18610;49.916;8.284;2022-10-31T10:37:52;20.35;;;8.57;;
32096;SDS011;18610;49.916;8.284;2022-10-31T10:40:23;24.92;;;7.97;;
32096;SDS011;18610;49.916;8.284;2022-10-31T10:42:53;19.17;;;7.60;;
32096;SDS011;18610;49.916;8.284;2022-10-31T10:45:43;28.53;;;8.10;;
32096;SDS011;18610;49.916;8.284;2022-10-31T10:48:33;14.77;;;8.23;;
32096;SDS011;18610;49.916;8.284;2022-10-31T10:51:10;17.27;;;7.90;;
32096;SDS011;18610;49.916;8.284;2022-10-31T10:53:50;18.98;;;8.20;;
32096;SDS011;18610;49.916;8.284;2022-10-31T10:56:31;18.42;;;8.13;;
32096;SDS011;18610;49.916;8.284;2022-10-31T10:59:04;15.15;;;7.25;;
32096;SDS011;18610;49.916;8.284;2022-10-31T11:01:35;23.27;;;8.55;;
32096;SDS011;18610;49.916;8.284;2022-10-31T11:04:02;18.95;;;8.93;;
32096;SDS011;18610;49.916;8.284;2022-10-31T11:06:57;20.13;;;7.90;;
32096;SDS011;18610;49.916;8.284;2022-10-31T11:09:28;24.23;;;8.02;;
32096;SDS011;18610;49.916;8.284;2022-10-31T11:11:55;24.27;;;7.95;;
32096;SDS011;18610;49.916;8.284;2022-10-31T11:14:23;18.80;;;9.55;;
32096;SDS011;18610;49.916;8.284;2022-10-31T11:16:52;23.73;;;8.98;;
32096;SDS011;18610;49.916;8.284;2022-10-31T11:19:23;20.73;;;9.48;;
32096;SDS011;18610;49.916;8.284;2022-10-31T11:21:52;17.35;;;8.20;;
32096;SDS011;18610;49.916;8.284;2022-10-31T11:24:22;20.67;;;8.75;;
32096;SDS011;18610;49.916;8.284;2022-10-31T11:26:51;23.83;;;8.77;;
32096;SDS011;18610;49.916;8.284;2022-10-31T11:29:28;20.75;;;8.07;;
32096;SDS011;18610;49.916;8.284;2022-10-31T11:31:56;19.85;;;8.07;;
32096;SDS011;18610;49.916;8.284;2022-10-31T11:34:27;14.70;;;7.72;;
32096;SDS011;18610;49.916;8.284;2022-10-31T11:36:58;15.98;;;7.72;;
32096;SDS011;18610;49.916;8.284;2022-10-31T11:39:31;27.00;;;10.10;;
32096;SDS011;18610;49.916;8.284;2022-10-31T11:41:59;23.08;;;8.60;;
32096;SDS011;18610;49.916;8.284;2022-10-31T11:44:29;30.70;;;9.55;;
32096;SDS011;18610;49.916;8.284;2022-10-31T11:46:58;25.90;;;9.25;;
32096;SDS011;18610;49.916;8.284;2022-10-31T11:49:28;22.02;;;9.20;;
32096;SDS011;18610;49.916;8.284;2022-10-31T11:51:59;17.90;;;9.57;;
32096;SDS011;18610;49.916;8.284;2022-10-31T11:54:28;26.50;;;10.18;;
32096;SDS011;18610;49.916;8.284;2022-10-31T11:56:58;26.10;;;10.47;;
32096;SDS011;18610;49.916;8.284;2022-10-31T11:59:26;23.48;;;8.73;;
32096;SDS011;18610;49.916;8.284;2022-10-31T12:01:55;30.83;;;9.60;;
32096;SDS011;18610;49.916;8.284;2022-10-31T12:04:26;21.00;;;9.57;;
32096;SDS011;18610;49.916;8.284;2022-10-31T12:07:03;23.23;;;8.77;;
32096;SDS011;18610;49.916;8.284;2022-10-31T12:09:33;18.55;;;8.68;;
32096;SDS011;18610;49.916;8.284;2022-10-31T12:14:55;23.58;;;9.07;;
32096;SDS011;18610;49.916;8.284;2022-10-31T12:17:32;29.95;;;9.00;;
32096;SDS011;18610;49.916;8.284;2022-10-31T12:20:07;25.90;;;8.52;;
32096;SDS011;18610;49.916;8.284;2022-10-31T12:22:45;23.75;;;8.38;;
32096;SDS011;18610;49.916;8.284;2022-10-31T12:25:23;22.23;;;7.63;;
32096;SDS011;18610;49.916;8.284;2022-10-31T12:28:04;30.60;;;9.27;;
32096;SDS011;18610;49.916;8.284;2022-10-31T12:30:57;26.30;;;8.10;;
32096;SDS011;18610;49.916;8.284;2022-10-31T12:33:36;22.45;;;9.02;;
32096;SDS011;18610;49.916;8.284;2022-10-31T12:36:19;13.65;;;8.02;;
32096;SDS011;18610;49.916;8.284;2022-10-31T12:39:00;26.02;;;8.38;;
32096;SDS011;18610;49.916;8.284;2022-10-31T12:41:43;25.65;;;8.23;;
32096;SDS011;18610;49.916;8.284;2022-10-31T12:44:14;20.25;;;8.48;;
32096;SDS011;18610;49.916;8.284;2022-10-31T12:47:09;19.10;;;8.60;;
32096;SDS011;18610;49.916;8.284;2022-10-31T12:49:54;19.33;;;8.77;;
32096;SDS011;18610;49.916;8.284;2022-10-31T12:52:36;20.90;;;8.90;;
32096;SDS011;18610;49.916;8.284;2022-10-31T12:55:16;19.15;;;8.00;;
32096;SDS011;18610;49.916;8.284;2022-10-31T12:57:58;18.95;;;8.77;;
32096;SDS011;18610;49.916;8.284;2022-10-31T13:00:31;18.33;;;8.02;;
32096;SDS011;18610;49.916;8.284;2022-10-31T13:02:59;33.40;;;9.38;;
32096;SDS011;18610;49.916;8.284;2022-10-31T13:05:36;20.55;;;8.63;;
32096;SDS011;18610;49.916;8.284;2022-10-31T13:08:07;24.13;;;10.20;;
32096;SDS011;18610;49.916;8.284;2022-10-31T13:10:40;24.13;;;9.85;;
32096;SDS011;18610;49.916;8.284;2022-10-31T13:13:12;22.67;;;9.55;;
32096;SDS011;18610;49.916;8.284;2022-10-31T13:15:46;21.58;;;11.20;;
32096;SDS011;18610;49.916;8.284;2022-10-31T13:20:51;23.27;;;9.60;;
32096;SDS011;18610;49.916;8.284;2022-10-31T13:23:21;27.23;;;10.60;;
32096;SDS011;18610;49.916;8.284;2022-10-31T13:25:54;19.10;;;9.45;;
32096;SDS011;18610;49.916;8.284;2022-10-31T13:28:27;17.80;;;8.35;;
32096;SDS011;18610;49.916;8.284;2022-10-31T13:30:59;19.67;;;9.15;;
32096;SDS011;18610;49.916;8.284;2022-10-31T13:33:29;27.10;;;10.85;;
32096;SDS011;18610;49.916;8.284;2022-10-31T13:36:05;28.17;;;10.97;;
32096;SDS011;18610;49.916;8.284;2022-10-31T13:38:41;22.33;;;9.85;;
32096;SDS011;18610;49.916;8.284;2022-10-31T13:41:17;21.73;;;9.75;;
32096;SDS011;18610;49.916;8.284;2022-10-31T13:43:59;21.08;;;8.82;;
32096;SDS011;18610;49.916;8.284;2022-10-31T13:46:35;28.23;;;9.95;;
32096;SDS011;18610;49.916;8.284;2022-10-31T13:49:03;25.58;;;9.48;;
32096;SDS011;18610;49.916;8.284;2022-10-31T13:51:47;20.20;;;9.88;;
32096;SDS011;18610;49.916;8.284;2022-10-31T13:54:19;31.90;;;10.65;;
32096;SDS011;18610;49.916;8.284;2022-10-31T13:56:48;22.30;;;10.13;;
32096;SDS011;18610;49.916;8.284;2022-10-31T13:59:18;24.90;;;10.75;;
32096;SDS011;18610;49.916;8.284;2022-10-31T14:01:49;21.92;;;10.57;;
32096;SDS011;18610;49.916;8.284;2022-10-31T14:04:18;24.83;;;9.60;;
32096;SDS011;18610;49.916;8.284;2022-10-31T14:06:51;25.48;;;9.25;;
32096;SDS011;18610;49.916;8.284;2022-10-31T14:09:24;27.73;;;11.30;;
32096;SDS011;18610;49.916;8.284;2022-10-31T14:11:54;23.25;;;10.55;;
32096;SDS011;18610;49.916;8.284;2022-10-31T14:14:28;22.20;;;10.30;;
32096;SDS011;18610;49.916;8.284;2022-10-31T14:16:59;28.02;;;9.40;;
32096;SDS011;18610;49.916;8.284;2022-10-31T14:19:27;24.17;;;9.07;;
32096;SDS011;18610;49.916;8.284;2022-10-31T14:21:54;25.55;;;10.07;;
32096;SDS011;18610;49.916;8.284;2022-10-31T14:24:31;18.67;;;8.73;;
32096;SDS011;18610;49.916;8.284;2022-10-31T14:27:03;23.58;;;8.15;;
32096;SDS011;18610;49.916;8.284;2022-10-31T14:29:47;27.30;;;8.82;;
32096;SDS011;18610;49.916;8.284;2022-10-31T14:32:18;15.45;;;6.95;;
32096;SDS011;18610;49.916;8.284;2022-10-31T14:34:52;19.35;;;8.07;;
32096;SDS011;18610;49.916;8.284;2022-10-31T14:37:32;24.88;;;7.70;;
32096;SDS011;18610;49.916;8.284;2022-10-31T14:40:18;19.40;;;7.72;;
32096;SDS011;18610;49.916;8.284;2022-10-31T14:42:55;21.00;;;8.00;;
32096;SDS011;18610;49.916;8.284;2022-10-31T14:45:46;24.73;;;7.43;;
32096;SDS011;18610;49.916;8.284;2022-10-31T14:51:09;21.42;;;6.88;;
32096;SDS011;18610;49.916;8.284;2022-10-31T14:53:40;16.08;;;7.45;;
32096;SDS011;18610;49.916;8.284;2022-10-31T14:56:12;23.63;;;8.23;;